sensor_id;sensor_type;location;lat;lon;timestamp;pressure;altitude;pressure_sealevel;temperature;humidity
43770;BME280;6597;52.218;9.882;2023-02-14T00:01:13;102866.00;;;0.31;100.00
43770;BME280;6597;52.218;9.882;2023-02-14T00:03:39;102861.66;;;0.30;100.00
43770;BME280;6597;52.218;9.882;2023-02-14T00:06:07;102857.44;;;0.32;100.00
43770;BME280;6597;52.218;9.882;2023-02-14T00:08:36;102864.28;;;0.31;100.00
43770;BME280;6597;52.218;9.882;2023-02-14T00:11:03;102865.00;;;0.27;100.00
43770;BME280;6597;52.218;9.882;2023-02-14T00:13:30;102857.13;;;0.24;100.00
43770;BME280;6597;52.218;9.882;2023-02-14T00:15:57;102865.44;;;0.17;100.00
43770;BME280;6597;52.218;9.882;2023-02-14T00:18:22;102861.75;;;0.11;100.00
43770;BME280;6597;52.218;9.882;2023-02-14T00:21:10;102853.94;;;0.09;100.00
43770;BME280;6597;52.218;9.882;2023-02-14T00:23:38;102856.38;;;0.06;100.00
43770;BME280;6597;52.218;9.882;2023-02-14T00:26:12;102859.16;;;0.11;100.00
43770;BME280;6597;52.218;9.882;2023-02-14T00:28:40;102850.22;;;0.03;100.00
43770;BME280;6597;52.218;9.882;2023-02-14T00:31:07;102851.75;;;-0.01;100.00
43770;BME280;6597;52.218;9.882;2023-02-14T00:33:33;102857.75;;;-0.02;100.00
43770;BME280;6597;52.218;9.882;2023-02-14T00:36:01;102844.53;;;-0.10;100.00
43770;BME280;6597;52.218;9.882;2023-02-14T00:38:28;102846.41;;;-0.06;100.00
43770;BME280;6597;52.218;9.882;2023-02-14T00:40:56;102855.91;;;-0.05;100.00
43770;BME280;6597;52.218;9.882;2023-02-14T00:43:22;102855.91;;;-0.05;100.00
43770;BME280;6597;52.218;9.882;2023-02-14T00:45:49;102860.13;;;-0.07;100.00
43770;BME280;6597;52.218;9.882;2023-02-14T00:48:16;102860.19;;;-0.05;100.00
43770;BME280;6597;52.218;9.882;2023-02-14T00:50:43;102871.22;;;-0.09;100.00
43770;BME280;6597;52.218;9.882;2023-02-14T00:53:11;102865.25;;;-0.08;100.00
43770;BME280;6597;52.218;9.882;2023-02-14T00:55:37;102861.72;;;-0.10;100.00
43770;BME280;6597;52.218;9.882;2023-02-14T00:58:05;102866.06;;;-0.09;100.00
43770;BME280;6597;52.218;9.882;2023-02-14T01:00:32;102868.69;;;-0.08;100.00
43770;BME280;6597;52.218;9.882;2023-02-14T01:02:58;102867.19;;;-0.03;100.00
43770;BME280;6597;52.218;9.882;2023-02-14T01:05:25;102867.53;;;0.05;100.00
43770;BME280;6597;52.218;9.882;2023-02-14T01:07:52;102872.75;;;0.07;100.00
43770;BME280;6597;52.218;9.882;2023-02-14T01:10:18;102872.69;;;0.05;100.00
43770;BME280;6597;52.218;9.882;2023-02-14T01:12:45;102865.56;;;-0.01;100.00
43770;BME280;6597;52.218;9.882;2023-02-14T01:15:13;102861.16;;;-0.03;100.00
43770;BME280;6597;52.218;9.882;2023-02-14T01:17:39;102862.09;;;-0.01;100.00
43770;BME280;6597;52.218;9.882;2023-02-14T01:20:07;102861.97;;;-0.04;100.00
43770;BME280;6597;52.218;9.882;2023-02-14T01:22:34;102861.97;;;-0.04;100.00
43770;BME280;6597;52.218;9.882;2023-02-14T01:25:02;102865.38;;;-0.05;100.00
43770;BME280;6597;52.218;9.882;2023-02-14T01:27:28;102855.84;;;-0.06;100.00
43770;BME280;6597;52.218;9.882;2023-02-14T01:29:55;102869.31;;;-0.13;100.00
43770;BME280;6597;52.218;9.882;2023-02-14T01:32:23;102869.00;;;-0.21;100.00
43770;BME280;6597;52.218;9.882;2023-02-14T01:34:49;102854.97;;;-0.27;100.00
43770;BME280;6597;52.218;9.882;2023-02-14T01:37:16;102864.34;;;-0.29;100.00
43770;BME280;6597;52.218;9.882;2023-02-14T01:39:43;102868.47;;;-0.33;100.00
43770;BME280;6597;52.218;9.882;2023-02-14T01:42:12;102863.94;;;-0.39;100.00
43770;BME280;6597;52.218;9.882;2023-02-14T01:45:00;102865.44;;;-0.44;100.00
43770;BME280;6597;52.218;9.882;2023-02-14T01:47:32;102867.00;;;-0.47;100.00
43770;BME280;6597;52.218;9.882;2023-02-14T01:50:02;102869.44;;;-0.50;100.00
43770;BME280;6597;52.218;9.882;2023-02-14T01:52:32;102870.06;;;-0.56;100.00
43770;BME280;6597;52.218;9.882;2023-02-14T01:55:02;102869.94;;;-0.59;100.00
43770;BME280;6597;52.218;9.882;2023-02-14T01:57:34;102867.28;;;-0.60;100.00
43770;BME280;6597;52.218;9.882;2023-02-14T02:00:04;102862.00;;;-0.64;100.00
43770;BME280;6597;52.218;9.882;2023-02-14T02:02:50;102856.78;;;-0.65;100.00
43770;BME280;6597;52.218;9.882;2023-02-14T02:05:18;102860.00;;;-0.69;100.00
43770;BME280;6597;52.218;9.882;2023-02-14T02:07:49;102855.59;;;-0.72;100.00
43770;BME280;6597;52.218;9.882;2023-02-14T02:10:16;102858.78;;;-0.77;100.00
43770;BME280;6597;52.218;9.882;2023-02-14T02:12:43;102860.28;;;-0.82;100.00
43770;BME280;6597;52.218;9.882;2023-02-14T02:15:09;102851.53;;;-0.86;100.00
43770;BME280;6597;52.218;9.882;2023-02-14T02:17:43;102840.88;;;-0.93;100.00
43770;BME280;6597;52.218;9.882;2023-02-14T02:20:36;102843.59;;;-0.90;100.00
43770;BME280;6597;52.218;9.882;2023-02-14T02:23:47;102844.28;;;-0.95;100.00
43770;BME280;6597;52.218;9.882;2023-02-14T02:26:37;102841.69;;;-0.95;100.00
43770;BME280;6597;52.218;9.882;2023-02-14T02:32:34;102826.22;;;-0.95;100.00
43770;BME280;6597;52.218;9.882;2023-02-14T02:35:41;102826.50;;;-0.88;100.00
43770;BME280;6597;52.218;9.882;2023-02-14T02:38:29;102825.81;;;-0.84;100.00
43770;BME280;6597;52.218;9.882;2023-02-14T02:41:03;102820.66;;;-0.84;100.00
43770;BME280;6597;52.218;9.882;2023-02-14T02:43:42;102815.50;;;-0.84;100.00
43770;BME280;6597;52.218;9.882;2023-02-14T02:46:14;102812.09;;;-0.83;100.00
43770;BME280;6597;52.218;9.882;2023-02-14T02:49:07;102812.09;;;-0.83;100.00
43770;BME280;6597;52.218;9.882;2023-02-14T02:51:44;102818.28;;;-0.80;100.00
43770;BME280;6597;52.218;9.882;2023-02-14T02:54:34;102814.81;;;-0.80;100.00
43770;BME280;6597;52.218;9.882;2023-02-14T02:57:06;102816.44;;;-0.82;100.00
43770;BME280;6597;52.218;9.882;2023-02-14T02:59:37;102815.50;;;-0.84;100.00
43770;BME280;6597;52.218;9.882;2023-02-14T03:02:08;102808.63;;;-0.84;100.00
43770;BME280;6597;52.218;9.882;2023-02-14T03:04:39;102813.66;;;-0.87;100.00
43770;BME280;6597;52.218;9.882;2023-02-14T03:07:29;102811.78;;;-0.91;100.00
43770;BME280;6597;52.218;9.882;2023-02-14T03:10:10;102800.56;;;-0.91;100.00
43770;BME280;6597;52.218;9.882;2023-02-14T03:19:06;102815.59;;;-1.01;100.00
43770;BME280;6597;52.218;9.882;2023-02-14T03:21:41;102809.81;;;-0.97;100.00
43770;BME280;6597;52.218;9.882;2023-02-14T03:24:14;102805.47;;;-0.98;100.00
43770;BME280;6597;52.218;9.882;2023-02-14T03:26:47;102796.91;;;-0.97;100.00
43770;BME280;6597;52.218;9.882;2023-02-14T03:29:23;102798.88;;;-0.91;100.00
43770;BME280;6597;52.218;9.882;2023-02-14T03:31:56;102794.66;;;-0.89;100.00
43770;BME280;6597;52.218;9.882;2023-02-14T03:34:29;102790.53;;;-0.85;100.00
43770;BME280;6597;52.218;9.882;2023-02-14T03:37:01;102794.94;;;-0.83;100.00
43770;BME280;6597;52.218;9.882;2023-02-14T03:39:36;102787.19;;;-0.83;100.00
43770;BME280;6597;52.218;9.882;2023-02-14T03:42:10;102784.75;;;-0.80;100.00
43770;BME280;6597;52.218;9.882;2023-02-14T03:44:39;102773.63;;;-0.79;100.00
43770;BME280;6597;52.218;9.882;2023-02-14T03:47:09;102780.66;;;-0.75;100.00
43770;BME280;6597;52.218;9.882;2023-02-14T03:49:40;102774.50;;;-0.78;100.00
43770;BME280;6597;52.218;9.882;2023-02-14T03:52:09;102779.66;;;-0.78;100.00
43770;BME280;6597;52.218;9.882;2023-02-14T03:54:38;102768.59;;;-0.76;100.00
43770;BME280;6597;52.218;9.882;2023-02-14T03:57:10;102764.31;;;-0.75;100.00
43770;BME280;6597;52.218;9.882;2023-02-14T03:59:39;102771.25;;;-0.74;100.00
43770;BME280;6597;52.218;9.882;2023-02-14T04:02:09;102768.72;;;-0.73;100.00
43770;BME280;6597;52.218;9.882;2023-02-14T04:04:43;102766.06;;;-0.74;100.00
43770;BME280;6597;52.218;9.882;2023-02-14T04:07:11;102773.06;;;-0.72;100.00
43770;BME280;6597;52.218;9.882;2023-02-14T04:09:40;102770.47;;;-0.72;100.00
43770;BME280;6597;52.218;9.882;2023-02-14T04:12:06;102759.16;;;-0.75;100.00
43770;BME280;6597;52.218;9.882;2023-02-14T04:14:34;102764.44;;;-0.72;100.00
43770;BME280;6597;52.218;9.882;2023-02-14T04:17:00;102759.09;;;-0.77;100.00
43770;BME280;6597;52.218;9.882;2023-02-14T04:19:45;102759.16;;;-0.75;100.00
43770;BME280;6597;52.218;9.882;2023-02-14T04:22:11;102760.91;;;-0.74;100.00
43770;BME280;6597;52.218;9.882;2023-02-14T04:24:39;102758.47;;;-0.71;100.00
43770;BME280;6597;52.218;9.882;2023-02-14T04:27:06;102758.41;;;-0.73;100.00
43770;BME280;6597;52.218;9.882;2023-02-14T04:29:37;102762.81;;;-0.70;100.00
43770;BME280;6597;52.218;9.882;2023-02-14T04:32:05;102754.25;;;-0.69;100.00
43770;BME280;6597;52.218;9.882;2023-02-14T04:34:33;102753.31;;;-0.71;100.00
43770;BME280;6597;52.218;9.882;2023-02-14T04:36:59;102751.56;;;-0.72;100.00
43770;BME280;6597;52.218;9.882;2023-02-14T04:39:26;102759.28;;;-0.72;100.00
43770;BME280;6597;52.218;9.882;2023-02-14T04:41:54;102753.88;;;-0.78;100.00
43770;BME280;6597;52.218;9.882;2023-02-14T04:44:21;102761.06;;;-0.71;100.00
43770;BME280;6597;52.218;9.882;2023-02-14T04:46:47;102760.16;;;-0.72;100.00
43770;BME280;6597;52.218;9.882;2023-02-14T04:49:14;102746.47;;;-0.71;100.00
43770;BME280;6597;52.218;9.882;2023-02-14T04:51:41;102757.66;;;-0.70;100.00
43770;BME280;6597;52.218;9.882;2023-02-14T04:54:08;102756.84;;;-0.69;100.00
43770;BME280;6597;52.218;9.882;2023-02-14T04:56:34;102753.38;;;-0.70;100.00
43770;BME280;6597;52.218;9.882;2023-02-14T04:59:02;102755.06;;;-0.70;100.00
43770;BME280;6597;52.218;9.882;2023-02-14T05:01:29;102756.84;;;-0.69;100.00
43770;BME280;6597;52.218;9.882;2023-02-14T05:03:55;102747.47;;;-0.67;100.00
43770;BME280;6597;52.218;9.882;2023-02-14T05:06:22;102757.06;;;-0.65;100.00
43770;BME280;6597;52.218;9.882;2023-02-14T05:08:48;102755.50;;;-0.61;100.00
43770;BME280;6597;52.218;9.882;2023-02-14T05:11:15;102754.75;;;-0.58;100.00
43770;BME280;6597;52.218;9.882;2023-02-14T05:13:41;102746.06;;;-0.60;100.00
43770;BME280;6597;52.218;9.882;2023-02-14T05:16:09;102751.41;;;-0.56;100.00
43770;BME280;6597;52.218;9.882;2023-02-14T05:18:36;102748.81;;;-0.56;100.00
43770;BME280;6597;52.218;9.882;2023-02-14T05:21:03;102745.38;;;-0.56;100.00
43770;BME280;6597;52.218;9.882;2023-02-14T05:23:29;102742.78;;;-0.56;100.00
43770;BME280;6597;52.218;9.882;2023-02-14T05:25:56;102747.94;;;-0.56;100.00
43770;BME280;6597;52.218;9.882;2023-02-14T05:28:22;102745.31;;;-0.58;100.00
43770;BME280;6597;52.218;9.882;2023-02-14T05:30:49;102741.84;;;-0.58;100.00
43770;BME280;6597;52.218;9.882;2023-02-14T05:33:18;102741.72;;;-0.61;100.00
43770;BME280;6597;52.218;9.882;2023-02-14T05:35:44;102741.59;;;-0.65;100.00
43770;BME280;6597;52.218;9.882;2023-02-14T05:38:11;102723.81;;;-0.78;100.00
43770;BME280;6597;52.218;9.882;2023-02-14T05:40:38;102744.63;;;-0.73;100.00
43770;BME280;6597;52.218;9.882;2023-02-14T05:43:06;102739.09;;;-0.82;100.00
43770;BME280;6597;52.218;9.882;2023-02-14T05:45:32;102744.94;;;-0.86;100.00
43770;BME280;6597;52.218;9.882;2023-02-14T05:47:59;102740.41;;;-0.92;100.00
43770;BME280;6597;52.218;9.882;2023-02-14T05:50:27;102746.97;;;-0.99;100.00
43770;BME280;6597;52.218;9.882;2023-02-14T05:52:54;102744.88;;;-1.07;100.00
43770;BME280;6597;52.218;9.882;2023-02-14T05:55:21;102744.47;;;-1.16;100.00
43770;BME280;6597;52.218;9.882;2023-02-14T05:57:48;102746.28;;;-1.14;100.00
43770;BME280;6597;52.218;9.882;2023-02-14T06:00:16;102749.56;;;-1.18;100.00
43770;BME280;6597;52.218;9.882;2023-02-14T06:02:43;102753.69;;;-1.21;100.00
43770;BME280;6597;52.218;9.882;2023-02-14T06:05:10;102752.00;;;-1.21;100.00
43770;BME280;6597;52.218;9.882;2023-02-14T06:07:38;102755.25;;;-1.25;100.00
43770;BME280;6597;52.218;9.882;2023-02-14T06:10:08;102755.19;;;-1.27;100.00
43770;BME280;6597;52.218;9.882;2023-02-14T06:12:35;102747.22;;;-1.31;100.00
43770;BME280;6597;52.218;9.882;2023-02-14T06:15:01;102755.75;;;-1.32;100.00
43770;BME280;6597;52.218;9.882;2023-02-14T06:17:28;102751.59;;;-1.30;100.00
43770;BME280;6597;52.218;9.882;2023-02-14T06:19:54;102756.44;;;-1.36;100.00
43770;BME280;6597;52.218;9.882;2023-02-14T06:22:21;102752.84;;;-1.40;100.00
43770;BME280;6597;52.218;9.882;2023-02-14T06:24:49;102740.91;;;-1.38;100.00
43770;BME280;6597;52.218;9.882;2023-02-14T06:27:15;102744.97;;;-1.43;100.00
43770;BME280;6597;52.218;9.882;2023-02-14T06:29:42;102749.13;;;-1.46;100.00
43770;BME280;6597;52.218;9.882;2023-02-14T06:32:09;102755.09;;;-1.47;100.00
43770;BME280;6597;52.218;9.882;2023-02-14T06:34:35;102750.69;;;-1.50;100.00
43770;BME280;6597;52.218;9.882;2023-02-14T06:37:02;102745.44;;;-1.51;100.00
43770;BME280;6597;52.218;9.882;2023-02-14T06:39:28;102751.41;;;-1.52;100.00
43770;BME280;6597;52.218;9.882;2023-02-14T06:41:56;102757.38;;;-1.53;100.00
43770;BME280;6597;52.218;9.882;2023-02-14T06:44:23;102757.31;;;-1.55;100.00
43770;BME280;6597;52.218;9.882;2023-02-14T06:46:49;102765.19;;;-1.52;100.00
43770;BME280;6597;52.218;9.882;2023-02-14T06:49:16;102760.16;;;-1.49;100.00
43770;BME280;6597;52.218;9.882;2023-02-14T06:51:42;102757.66;;;-1.47;100.00
43770;BME280;6597;52.218;9.882;2023-02-14T06:54:09;102756.09;;;-1.44;100.00
43770;BME280;6597;52.218;9.882;2023-02-14T06:56:36;102764.03;;;-1.39;100.00
43770;BME280;6597;52.218;9.882;2023-02-14T06:59:03;102762.53;;;-1.34;100.00
43770;BME280;6597;52.218;9.882;2023-02-14T07:01:30;102761.78;;;-1.32;100.00
43770;BME280;6597;52.218;9.882;2023-02-14T07:03:57;102759.22;;;-1.32;100.00
43770;BME280;6597;52.218;9.882;2023-02-14T07:06:23;102765.50;;;-1.27;100.00
43770;BME280;6597;52.218;9.882;2023-02-14T07:08:50;102756.06;;;-1.26;100.00
43770;BME280;6597;52.218;9.882;2023-02-14T07:11:17;102766.66;;;-1.20;100.00
43770;BME280;6597;52.218;9.882;2023-02-14T07:13:43;102765.97;;;-1.16;100.00
43770;BME280;6597;52.218;9.882;2023-02-14T07:16:11;102765.47;;;-1.07;100.00
43770;BME280;6597;52.218;9.882;2023-02-14T07:18:37;102763.41;;;-0.97;100.00
43770;BME280;6597;52.218;9.882;2023-02-14T07:21:04;102760.34;;;-0.88;100.00
43770;BME280;6597;52.218;9.882;2023-02-14T07:23:31;102766.69;;;-0.60;100.00
43770;BME280;6597;52.218;9.882;2023-02-14T07:25:58;102761.19;;;-0.28;100.00
43770;BME280;6597;52.218;9.882;2023-02-14T07:28:24;102751.63;;;0.13;100.00
43770;BME280;6597;52.218;9.882;2023-02-14T07:30:51;102755.63;;;0.49;100.00
43770;BME280;6597;52.218;9.882;2023-02-14T07:33:19;102752.59;;;0.83;100.00
43770;BME280;6597;52.218;9.882;2023-02-14T07:35:45;102756.34;;;1.39;100.00
43770;BME280;6597;52.218;9.882;2023-02-14T07:38:12;102743.41;;;2.18;100.00
43770;BME280;6597;52.218;9.882;2023-02-14T07:40:38;102739.84;;;3.03;100.00
43770;BME280;6597;52.218;9.882;2023-02-14T07:43:05;102734.78;;;3.74;100.00
43770;BME280;6597;52.218;9.882;2023-02-14T07:45:32;102727.75;;;4.45;100.00
43770;BME280;6597;52.218;9.882;2023-02-14T07:48:02;102740.63;;;5.23;100.00
43770;BME280;6597;52.218;9.882;2023-02-14T07:50:29;102732.28;;;5.91;100.00
43770;BME280;6597;52.218;9.882;2023-02-14T07:52:56;102730.47;;;6.47;100.00
43770;BME280;6597;52.218;9.882;2023-02-14T07:55:23;102725.84;;;6.92;100.00
43770;BME280;6597;52.218;9.882;2023-02-14T07:57:50;102733.34;;;7.47;100.00
43770;BME280;6597;52.218;9.882;2023-02-14T08:00:18;102717.25;;;8.02;100.00
43770;BME280;6597;52.218;9.882;2023-02-14T08:02:44;102723.53;;;8.28;100.00
43770;BME280;6597;52.218;9.882;2023-02-14T08:05:11;102722.75;;;8.43;91.52
43770;BME280;6597;52.218;9.882;2023-02-14T08:07:40;102721.97;;;8.55;81.74
43770;BME280;6597;52.218;9.882;2023-02-14T08:10:07;102724.66;;;8.73;75.79
43770;BME280;6597;52.218;9.882;2023-02-14T08:12:34;102728.09;;;8.61;71.50
43770;BME280;6597;52.218;9.882;2023-02-14T08:15:18;102736.78;;;8.47;68.55
43770;BME280;6597;52.218;9.882;2023-02-14T08:18:02;102740.06;;;8.21;69.76
43770;BME280;6597;52.218;9.882;2023-02-14T08:20:29;102739.72;;;7.78;70.33
43770;BME280;6597;52.218;9.882;2023-02-14T08:22:57;102734.66;;;7.95;70.15
43770;BME280;6597;52.218;9.882;2023-02-14T08:25:23;102740.09;;;8.29;70.77
43770;BME280;6597;52.218;9.882;2023-02-14T08:27:50;102735.13;;;8.70;69.81
43770;BME280;6597;52.218;9.882;2023-02-14T08:30:17;102733.50;;;9.10;67.66
43770;BME280;6597;52.218;9.882;2023-02-14T08:32:43;102741.41;;;9.38;67.26
43770;BME280;6597;52.218;9.882;2023-02-14T08:35:10;102736.22;;;9.48;67.66
43770;BME280;6597;52.218;9.882;2023-02-14T08:37:36;102736.19;;;9.73;65.10
43770;BME280;6597;52.218;9.882;2023-02-14T08:40:05;102737.97;;;9.93;63.88
43770;BME280;6597;52.218;9.882;2023-02-14T08:42:32;102737.97;;;9.92;63.50
43770;BME280;6597;52.218;9.882;2023-02-14T08:44:59;102731.81;;;10.01;63.48
43770;BME280;6597;52.218;9.882;2023-02-14T08:47:25;102723.09;;;10.09;63.20
43770;BME280;6597;52.218;9.882;2023-02-14T08:49:52;102730.94;;;10.12;63.02
43770;BME280;6597;52.218;9.882;2023-02-14T08:52:18;102725.72;;;9.89;64.22
43770;BME280;6597;52.218;9.882;2023-02-14T08:54:45;102721.34;;;9.94;65.80
43770;BME280;6597;52.218;9.882;2023-02-14T08:57:13;102729.22;;;10.22;64.96
43770;BME280;6597;52.218;9.882;2023-02-14T08:59:40;102727.41;;;10.39;63.50
43770;BME280;6597;52.218;9.882;2023-02-14T09:02:10;102730.06;;;10.32;65.52
43770;BME280;6597;52.218;9.882;2023-02-14T09:04:37;102721.19;;;10.68;63.69
43770;BME280;6597;52.218;9.882;2023-02-14T09:07:03;102719.41;;;10.79;63.48
43770;BME280;6597;52.218;9.882;2023-02-14T09:09:30;102720.13;;;11.05;63.30
43770;BME280;6597;52.218;9.882;2023-02-14T09:11:57;102722.66;;;11.20;63.00
43770;BME280;6597;52.218;9.882;2023-02-14T09:14:25;102718.25;;;11.26;63.21
43770;BME280;6597;52.218;9.882;2023-02-14T09:16:51;102722.50;;;11.46;62.92
43770;BME280;6597;52.218;9.882;2023-02-14T09:19:18;102711.94;;;11.49;61.77
43770;BME280;6597;52.218;9.882;2023-02-14T09:21:44;102704.84;;;11.61;62.05
43770;BME280;6597;52.218;9.882;2023-02-14T09:24:11;102700.13;;;11.98;61.99
43770;BME280;6597;52.218;9.882;2023-02-14T09:26:37;102698.00;;;12.33;58.60
43770;BME280;6597;52.218;9.882;2023-02-14T09:29:06;102704.56;;;12.74;58.52
43770;BME280;6597;52.218;9.882;2023-02-14T09:31:35;102702.22;;;13.17;58.02
43770;BME280;6597;52.218;9.882;2023-02-14T09:34:02;102701.63;;;13.54;55.29
43770;BME280;6597;52.218;9.882;2023-02-14T09:36:28;102696.78;;;13.82;55.20
43770;BME280;6597;52.218;9.882;2023-02-14T09:39:13;102694.25;;;14.22;55.10
43770;BME280;6597;52.218;9.882;2023-02-14T09:41:55;102698.56;;;14.72;52.88
43770;BME280;6597;52.218;9.882;2023-02-14T09:44:31;102691.59;;;15.08;52.06
43770;BME280;6597;52.218;9.882;2023-02-14T09:47:06;102693.84;;;15.23;51.05
43770;BME280;6597;52.218;9.882;2023-02-14T09:49:37;102675.28;;;15.64;51.24
43770;BME280;6597;52.218;9.882;2023-02-14T09:52:08;102686.59;;;16.03;50.01
43770;BME280;6597;52.218;9.882;2023-02-14T09:54:39;102689.50;;;16.26;47.87
43770;BME280;6597;52.218;9.882;2023-02-14T09:57:10;102690.88;;;16.39;48.36
43770;BME280;6597;52.218;9.882;2023-02-14T09:59:46;102693.16;;;16.52;47.49
43770;BME280;6597;52.218;9.882;2023-02-14T10:02:36;102690.16;;;15.68;48.32
43770;BME280;6597;52.218;9.882;2023-02-14T10:05:10;102693.47;;;15.03;50.07
43770;BME280;6597;52.218;9.882;2023-02-14T10:07:47;102688.25;;;14.58;50.41
43770;BME280;6597;52.218;9.882;2023-02-14T10:10:19;102695.28;;;15.01;51.95
43770;BME280;6597;52.218;9.882;2023-02-14T10:12:51;102695.94;;;14.71;52.23
43770;BME280;6597;52.218;9.882;2023-02-14T10:15:22;102689.72;;;14.28;53.73
43770;BME280;6597;52.218;9.882;2023-02-14T10:17:54;102692.28;;;14.33;55.25
43770;BME280;6597;52.218;9.882;2023-02-14T10:20:25;102689.69;;;14.30;55.07
43770;BME280;6597;52.218;9.882;2023-02-14T10:23:00;102682.97;;;14.14;56.39
43770;BME280;6597;52.218;9.882;2023-02-14T10:25:35;102686.19;;;14.28;56.27
43770;BME280;6597;52.218;9.882;2023-02-14T10:28:04;102682.53;;;13.90;58.62
43770;BME280;6597;52.218;9.882;2023-02-14T10:30:37;102679.44;;;14.15;59.31
43770;BME280;6597;52.218;9.882;2023-02-14T10:33:12;102678.31;;;14.71;57.24
43770;BME280;6597;52.218;9.882;2023-02-14T10:35:45;102680.13;;;15.08;55.04
43770;BME280;6597;52.218;9.882;2023-02-14T10:38:19;102672.19;;;15.08;53.82
43770;BME280;6597;52.218;9.882;2023-02-14T10:41:03;102678.53;;;15.01;54.07
43770;BME280;6597;52.218;9.882;2023-02-14T10:43:35;102678.53;;;15.38;51.68
43770;BME280;6597;52.218;9.882;2023-02-14T10:46:11;102670.41;;;15.45;51.25
43770;BME280;6597;52.218;9.882;2023-02-14T10:48:50;102675.00;;;15.74;50.99
43770;BME280;6597;52.218;9.882;2023-02-14T10:51:28;102668.44;;;15.87;49.35
43770;BME280;6597;52.218;9.882;2023-02-14T10:54:08;102670.16;;;16.21;49.04
43770;BME280;6597;52.218;9.882;2023-02-14T10:56:40;102667.31;;;16.60;48.28
43770;BME280;6597;52.218;9.882;2023-02-14T10:59:17;102653.91;;;16.94;47.07
43770;BME280;6597;52.218;9.882;2023-02-14T11:01:47;102652.09;;;17.22;45.34
43770;BME280;6597;52.218;9.882;2023-02-14T11:04:17;102645.25;;;16.87;46.40
43770;BME280;6597;52.218;9.882;2023-02-14T11:06:45;102651.94;;;16.41;46.70
43770;BME280;6597;52.218;9.882;2023-02-14T11:09:13;102639.34;;;16.48;48.00
43770;BME280;6597;52.218;9.882;2023-02-14T11:11:42;102631.78;;;16.36;48.88
43770;BME280;6597;52.218;9.882;2023-02-14T11:14:25;102634.78;;;16.53;48.41
43770;BME280;6597;52.218;9.882;2023-02-14T11:16:53;102635.34;;;16.94;48.64
43770;BME280;6597;52.218;9.882;2023-02-14T11:19:26;102625.69;;;17.44;47.85
43770;BME280;6597;52.218;9.882;2023-02-14T11:21:54;102631.50;;;17.82;47.24
43770;BME280;6597;52.218;9.882;2023-02-14T11:24:27;102620.75;;;18.10;46.70
43770;BME280;6597;52.218;9.882;2023-02-14T11:26:58;102611.28;;;18.26;44.72
43770;BME280;6597;52.218;9.882;2023-02-14T11:29:27;102617.44;;;18.50;44.50
43770;BME280;6597;52.218;9.882;2023-02-14T11:31:55;102616.25;;;18.58;43.85
43770;BME280;6597;52.218;9.882;2023-02-14T11:34:43;102611.78;;;18.59;44.43
43770;BME280;6597;52.218;9.882;2023-02-14T11:37:25;102606.25;;;18.42;45.18
43770;BME280;6597;52.218;9.882;2023-02-14T11:39:53;102605.47;;;18.61;44.82
43770;BME280;6597;52.218;9.882;2023-02-14T11:42:37;102606.31;;;19.07;44.49
43770;BME280;6597;52.218;9.882;2023-02-14T11:45:07;102607.75;;;19.36;42.91
43770;BME280;6597;52.218;9.882;2023-02-14T11:47:37;102599.63;;;19.39;42.30
43770;BME280;6597;52.218;9.882;2023-02-14T11:50:20;102596.84;;;19.00;43.28
43770;BME280;6597;52.218;9.882;2023-02-14T11:52:50;102594.72;;;19.08;43.77
43770;BME280;6597;52.218;9.882;2023-02-14T11:55:25;102598.00;;;19.15;43.38
43770;BME280;6597;52.218;9.882;2023-02-14T11:57:54;102585.00;;;18.85;43.28
43770;BME280;6597;52.218;9.882;2023-02-14T12:00:21;102587.31;;;18.73;43.45
43770;BME280;6597;52.218;9.882;2023-02-14T12:02:52;102587.06;;;18.79;43.59
43770;BME280;6597;52.218;9.882;2023-02-14T12:05:22;102588.56;;;18.64;44.58
43770;BME280;6597;52.218;9.882;2023-02-14T12:07:53;102573.53;;;18.63;45.57
43770;BME280;6597;52.218;9.882;2023-02-14T12:10:24;102577.53;;;18.73;45.35
43770;BME280;6597;52.218;9.882;2023-02-14T12:12:54;102579.06;;;18.57;45.45
43770;BME280;6597;52.218;9.882;2023-02-14T12:15:28;102568.09;;;18.43;45.75
43770;BME280;6597;52.218;9.882;2023-02-14T12:18:05;102568.16;;;18.41;45.14
43770;BME280;6597;52.218;9.882;2023-02-14T12:20:43;102557.78;;;18.57;45.68
43770;BME280;6597;52.218;9.882;2023-02-14T12:23:15;102558.63;;;18.35;46.36
43770;BME280;6597;52.218;9.882;2023-02-14T12:25:47;102553.00;;;18.43;46.18
43770;BME280;6597;52.218;9.882;2023-02-14T12:28:20;102544.72;;;18.51;46.27
43770;BME280;6597;52.218;9.882;2023-02-14T12:30:48;102547.75;;;18.42;46.86
43770;BME280;6597;52.218;9.882;2023-02-14T12:33:17;102536.00;;;18.02;47.75
43770;BME280;6597;52.218;9.882;2023-02-14T12:35:54;102533.06;;;17.36;49.31
43770;BME280;6597;52.218;9.882;2023-02-14T12:38:37;102531.94;;;16.92;50.05
43770;BME280;6597;52.218;9.882;2023-02-14T12:41:22;102533.66;;;16.65;52.13
43770;BME280;6597;52.218;9.882;2023-02-14T12:43:52;102522.69;;;16.77;51.71
43770;BME280;6597;52.218;9.882;2023-02-14T12:46:30;102522.19;;;16.65;50.92
43770;BME280;6597;52.218;9.882;2023-02-14T12:49:17;102517.75;;;16.65;51.29
43770;BME280;6597;52.218;9.882;2023-02-14T12:51:55;102522.56;;;16.80;50.57
43770;BME280;6597;52.218;9.882;2023-02-14T12:54:34;102513.44;;;16.89;50.88
43770;BME280;6597;52.218;9.882;2023-02-14T12:57:12;102510.22;;;17.06;50.99
43770;BME280;6597;52.218;9.882;2023-02-14T12:59:49;102509.97;;;17.14;50.54
43770;BME280;6597;52.218;9.882;2023-02-14T13:02:55;102498.31;;;17.42;50.08
43770;BME280;6597;52.218;9.882;2023-02-14T13:05:36;102500.44;;;17.58;48.60
43770;BME280;6597;52.218;9.882;2023-02-14T13:08:22;102493.81;;;17.69;47.84
43770;BME280;6597;52.218;9.882;2023-02-14T13:10:57;102495.56;;;17.94;47.20
43770;BME280;6597;52.218;9.882;2023-02-14T13:13:32;102497.63;;;18.09;47.41
43770;BME280;6597;52.218;9.882;2023-02-14T13:16:11;102490.16;;;18.19;46.46
43770;BME280;6597;52.218;9.882;2023-02-14T13:18:46;102480.72;;;18.33;46.56
43770;BME280;6597;52.218;9.882;2023-02-14T13:21:16;102481.38;;;18.39;46.50
43770;BME280;6597;52.218;9.882;2023-02-14T13:23:47;102474.56;;;18.53;46.72